Аэропорт: Внуково. Москва

ICAO: UUWW

METAR:
2019/03/26 13:00
UUWW 261300Z 26005MPS 9999 BKN026CB 04/M03 Q1003 R24/290050 NOSIG
METAR:
2019/03/26 13:33
TAF COR TAF COR UUWW 251316Z 2513/2612 27005G12MPS 8000 BKN015 TX03/2012Z TNM01/2104Z 
      TEMPO 2012/2018 3100 -SHSNRA BKN011 SCT020CB 
      BECMG 2018/2019 21003MPS BKN011 PROB40 
      TEMPO 2019/2103 1000 BR 
     FM210300 22005G12MPS 3100 -SN OVC011 
      TEMPO 2103/2109 1500 SHSN BKN005 BKN015CB